Time;durP1;ratioP1;P1;durP2;ratioP2;P2;SDS_P1;SDS_P2;PMS_P1;PMS_P2;Temp;Humidity;BMP_temperature;BMP_pressure;BME280_temperature;BME280_humidity;BME280_pressure;Samples;Min_cycle;Max_cycle;Signal;HPM_P1;HPM_P2
2021/03/10 00:01:07;;;;;;;1.20;0.73;;;;;;;;;;5034676;28;20835;-73
2021/03/10 00:03:33;;;;;;;0.97;0.73;;;;;;;;;;5022837;28;20839;-72
2021/03/10 00:05:59;;;;;;;1.17;1.07;;;;;;;;;;5042682;28;20427;-72
2021/03/10 00:08:25;;;;;;;1.23;1.13;;;;;;;;;;5034497;28;20931;-72
2021/03/10 00:10:51;;;;;;;1.53;1.00;;;;;;;;;;5036975;28;20981;-72
2021/03/10 00:13:17;;;;;;;1.10;0.87;;;;;;;;;;5054068;28;20901;-73
2021/03/10 00:15:43;;;;;;;10.33;1.30;;;;;;;;;;5053712;28;20453;-73
2021/03/10 00:18:09;;;;;;;2.10;0.70;;;;;;;;;;5054045;28;20421;-72
2021/03/10 00:20:35;;;;;;;1.67;1.57;;;;;;;;;;5054924;28;20527;-73
2021/03/10 00:23:01;;;;;;;0.83;0.80;;;;;;;;;;5035393;28;21290;-72
2021/03/10 00:25:26;;;;;;;2.00;1.53;;;;;;;;;;5035801;28;20439;-72
2021/03/10 00:27:52;;;;;;;3.20;2.07;;;;;;;;;;5041613;28;20528;-73
2021/03/10 00:30:19;;;;;;;1.13;1.03;;;;;;;;;;5052999;28;20444;-72
2021/03/10 00:32:45;;;;;;;4.13;3.80;;;;;;;;;;5040364;28;20436;-73
2021/03/10 00:35:11;;;;;;;0.70;0.50;;;;;;;;;;5062410;28;20414;-73
2021/03/10 00:37:37;;;;;;;1.20;1.10;;;;;;;;;;5075563;28;20413;-72
2021/03/10 00:40:03;;;;;;;1.60;1.50;;;;;;;;;;5074667;28;20461;-73
2021/03/10 00:42:29;;;;;;;1.53;1.43;;;;;;;;;;5056476;28;20426;-72
2021/03/10 00:44:55;;;;;;;1.43;1.33;;;;;;;;;;5043003;28;20447;-73
2021/03/10 00:47:21;;;;;;;1.10;1.00;;;;;;;;;;5034709;28;20459;-73
2021/03/10 00:49:47;;;;;;;1.17;1.03;;;;;;;;;;5034450;28;20461;-72
2021/03/10 00:52:13;;;;;;;0.90;0.70;;;;;;;;;;5046913;28;20433;-74
2021/03/10 00:54:40;;;;;;;4.50;0.97;;;;;;;;;;5053936;28;20470;-73
2021/03/10 00:57:08;;;;;;;1.27;1.17;;;;;;;;;;5032083;28;20426;-73
2021/03/10 00:59:34;;;;;;;1.70;1.40;;;;;;;;;;5033974;28;20461;-72
2021/03/10 01:02:00;;;;;;;7.90;1.07;;;;;;;;;;5034490;28;20426;-73
2021/03/10 01:04:26;;;;;;;5.73;1.20;;;;;;;;;;5046875;28;20505;-74
2021/03/10 01:06:52;;;;;;;0.93;0.87;;;;;;;;;;5052848;28;20508;-72
2021/03/10 01:09:18;;;;;;;0.90;0.70;;;;;;;;;;5052777;28;20418;-73
2021/03/10 01:11:45;;;;;;;1.33;0.87;;;;;;;;;;5044881;28;20423;-73
2021/03/10 01:14:10;;;;;;;1.07;1.07;;;;;;;;;;5033381;28;20411;-73
2021/03/10 01:16:36;;;;;;;1.73;1.63;;;;;;;;;;5033635;28;20425;-73
2021/03/10 01:19:03;;;;;;;1.00;0.80;;;;;;;;;;5033426;28;20432;-73
2021/03/10 01:21:29;;;;;;;1.00;0.70;;;;;;;;;;5039799;28;20444;-73
2021/03/10 01:23:55;;;;;;;0.80;0.70;;;;;;;;;;5053105;28;20910;-74
2021/03/10 01:26:21;;;;;;;2.60;2.40;;;;;;;;;;5053431;28;20433;-71
2021/03/10 01:28:47;;;;;;;1.43;0.93;;;;;;;;;;5063759;28;20417;-73
2021/03/10 01:31:13;;;;;;;0.80;0.70;;;;;;;;;;5059487;28;20855;-72
2021/03/10 01:33:39;;;;;;;1.53;1.07;;;;;;;;;;5052740;28;20501;-73
2021/03/10 01:36:05;;;;;;;1.00;0.90;;;;;;;;;;5053169;28;20421;-72
2021/03/10 01:38:31;;;;;;;1.37;0.70;;;;;;;;;;5052892;28;20469;-73
2021/03/10 01:40:57;;;;;;;2.00;1.23;;;;;;;;;;5031131;28;20993;-73
2021/03/10 01:43:23;;;;;;;1.33;0.80;;;;;;;;;;5043634;28;20419;-73
2021/03/10 01:45:49;;;;;;;0.70;0.50;;;;;;;;;;5053217;28;20786;-73
2021/03/10 01:48:18;;;;;;;1.77;1.10;;;;;;;;;;5053020;28;20445;-72
2021/03/10 01:50:44;;;;;;;6.33;2.00;;;;;;;;;;5038209;28;21003;-73
2021/03/10 01:53:10;;;;;;;2.37;1.33;;;;;;;;;;5052845;28;20507;-73
2021/03/10 01:55:36;;;;;;;0.80;0.60;;;;;;;;;;5034967;28;20936;-73
2021/03/10 01:58:02;;;;;;;0.80;0.60;;;;;;;;;;5052935;28;20428;-73
2021/03/10 02:00:29;;;;;;;1.70;1.60;;;;;;;;;;5050771;28;20465;-72
2021/03/10 02:02:55;;;;;;;2.40;1.17;;;;;;;;;;5050780;28;20423;-72
2021/03/10 02:05:22;;;;;;;2.70;2.60;;;;;;;;;;5052892;28;20498;-73
2021/03/10 02:07:51;;;;;;;0.80;0.50;;;;;;;;;;5052638;28;20447;-73
2021/03/10 02:10:26;;;;;;;1.13;1.00;;;;;;;;;;5052551;28;21115;-72
2021/03/10 02:13:11;;;;;;;3.63;1.47;;;;;;;;;;5051655;28;20486;-73
2021/03/10 02:15:58;;;;;;;4.23;1.43;;;;;;;;;;5035259;28;20417;-72
2021/03/10 02:18:36;;;;;;;3.33;0.73;;;;;;;;;;5032616;28;20440;-73
2021/03/10 02:21:02;;;;;;;1.63;1.53;;;;;;;;;;5042414;28;20471;-73
2021/03/10 02:23:34;;;;;;;0.80;0.60;;;;;;;;;;5038589;28;21172;-73
2021/03/10 02:26:00;;;;;;;1.70;0.83;;;;;;;;;;5056903;28;20439;-73
2021/03/10 02:28:27;;;;;;;2.03;0.90;;;;;;;;;;5064082;28;20465;-72
2021/03/10 02:30:54;;;;;;;0.80;0.73;;;;;;;;;;5048674;28;20832;-72
2021/03/10 02:33:21;;;;;;;0.70;0.50;;;;;;;;;;5055470;28;20449;-73
2021/03/10 02:35:49;;;;;;;1.13;0.80;;;;;;;;;;5055203;28;20417;-73
2021/03/10 02:38:16;;;;;;;3.53;0.90;;;;;;;;;;5076583;28;20425;-73
2021/03/10 02:40:42;;;;;;;2.30;1.47;;;;;;;;;;5073005;28;21019;-72
2021/03/10 02:43:08;;;;;;;0.93;0.83;;;;;;;;;;5057635;28;20471;-72
2021/03/10 02:45:34;;;;;;;3.80;1.33;;;;;;;;;;5063817;28;20438;-73
2021/03/10 02:48:02;;;;;;;3.60;1.03;;;;;;;;;;5054639;28;20787;-71
2021/03/10 02:50:29;;;;;;;1.43;1.00;;;;;;;;;;5045794;28;20458;-73
2021/03/10 02:52:55;;;;;;;3.60;2.03;;;;;;;;;;5034400;28;20420;-73
2021/03/10 02:55:21;;;;;;;2.90;1.77;;;;;;;;;;5036382;28;20439;-73
2021/03/10 02:57:47;;;;;;;6.47;1.93;;;;;;;;;;5036216;28;20787;-72
2021/03/10 03:00:15;;;;;;;0.90;0.60;;;;;;;;;;5036107;28;20973;-73
2021/03/10 03:02:41;;;;;;;0.80;0.67;;;;;;;;;;5037162;28;20415;-73
2021/03/10 03:05:07;;;;;;;7.00;1.43;;;;;;;;;;5055657;28;20810;-74
2021/03/10 03:07:34;;;;;;;1.97;1.83;;;;;;;;;;5055812;28;20439;-74
2021/03/10 03:10:00;;;;;;;5.10;1.43;;;;;;;;;;5055153;28;20480;-73
2021/03/10 03:12:27;;;;;;;0.90;0.60;;;;;;;;;;5039768;28;20427;-73
2021/03/10 03:14:54;;;;;;;2.53;1.00;;;;;;;;;;5036984;28;20425;-73
2021/03/10 03:17:20;;;;;;;1.00;0.67;;;;;;;;;;5031624;28;20879;-72
2021/03/10 03:19:46;;;;;;;1.20;1.10;;;;;;;;;;5035963;28;20505;-72
2021/03/10 03:22:14;;;;;;;1.03;0.80;;;;;;;;;;5023445;28;20409;-73
2021/03/10 03:24:40;;;;;;;1.20;0.90;;;;;;;;;;5046588;28;20780;-73
2021/03/10 03:27:06;;;;;;;1.10;0.97;;;;;;;;;;5055836;28;20416;-73
2021/03/10 03:29:32;;;;;;;1.20;0.70;;;;;;;;;;5052945;28;20419;-73
2021/03/10 03:31:58;;;;;;;2.33;1.63;;;;;;;;;;5055154;28;20795;-73
2021/03/10 03:34:25;;;;;;;1.03;0.90;;;;;;;;;;5055105;28;20909;-72
2021/03/10 03:36:51;;;;;;;0.70;0.50;;;;;;;;;;5055159;28;20421;-73
2021/03/10 03:39:17;;;;;;;0.80;0.60;;;;;;;;;;5053667;28;20464;-73
2021/03/10 03:41:44;;;;;;;1.00;0.90;;;;;;;;;;5045491;28;20421;-72
2021/03/10 03:44:10;;;;;;;5.90;1.00;;;;;;;;;;5041355;28;20416;-73
2021/03/10 03:46:36;;;;;;;0.80;0.70;;;;;;;;;;5036720;28;20416;-73
2021/03/10 03:49:03;;;;;;;1.47;0.93;;;;;;;;;;5037205;28;20420;-74
2021/03/10 03:51:30;;;;;;;0.90;0.70;;;;;;;;;;5047123;28;20459;-73
2021/03/10 03:53:57;;;;;;;0.97;0.77;;;;;;;;;;5017077;28;20428;-73
2021/03/10 03:56:23;;;;;;;10.60;1.70;;;;;;;;;;5034181;28;20448;-72
2021/03/10 03:58:48;;;;;;;1.87;1.77;;;;;;;;;;5035128;28;20419;-74
2021/03/10 04:01:14;;;;;;;1.40;0.90;;;;;;;;;;5039206;28;20463;-73
2021/03/10 04:03:41;;;;;;;1.40;1.30;;;;;;;;;;5054571;28;20419;-73
2021/03/10 04:06:07;;;;;;;5.03;1.13;;;;;;;;;;5054299;28;20456;-73
2021/03/10 04:08:33;;;;;;;3.03;1.40;;;;;;;;;;5054594;28;20409;-73
2021/03/10 04:10:59;;;;;;;0.90;0.60;;;;;;;;;;5054222;28;20823;-73
2021/03/10 04:13:24;;;;;;;0.80;0.80;;;;;;;;;;5054475;28;20571;-73
2021/03/10 04:15:50;;;;;;;3.47;1.30;;;;;;;;;;5054773;28;20826;-73
2021/03/10 04:18:16;;;;;;;0.83;0.63;;;;;;;;;;5054747;28;20426;-73
2021/03/10 04:20:43;;;;;;;1.83;1.03;;;;;;;;;;5053555;28;20551;-73
2021/03/10 04:23:09;;;;;;;1.40;1.00;;;;;;;;;;5034532;28;20445;-73
2021/03/10 04:25:35;;;;;;;2.30;0.87;;;;;;;;;;5034347;28;20899;-73
2021/03/10 04:28:01;;;;;;;0.70;0.50;;;;;;;;;;5024920;28;20418;-73
2021/03/10 04:30:27;;;;;;;0.73;0.57;;;;;;;;;;5067542;28;20505;-73
2021/03/10 04:32:53;;;;;;;1.40;0.97;;;;;;;;;;5053357;28;20948;-72
2021/03/10 04:35:20;;;;;;;0.70;0.60;;;;;;;;;;5053852;28;20420;-73
2021/03/10 04:37:46;;;;;;;0.70;0.50;;;;;;;;;;5043347;28;20430;-73
2021/03/10 04:40:12;;;;;;;0.70;0.50;;;;;;;;;;5033971;28;21007;-73
2021/03/10 04:42:39;;;;;;;1.17;1.03;;;;;;;;;;5049322;28;20419;-73
2021/03/10 04:45:07;;;;;;;0.97;0.70;;;;;;;;;;5053786;28;20424;-73
2021/03/10 04:47:33;;;;;;;6.23;1.03;;;;;;;;;;5053691;28;20398;-73
2021/03/10 04:49:59;;;;;;;0.70;0.50;;;;;;;;;;5053467;28;20454;-73
2021/03/10 04:52:25;;;;;;;1.33;1.20;;;;;;;;;;5043486;28;20927;-72
2021/03/10 04:54:51;;;;;;;4.20;3.90;;;;;;;;;;5042233;28;20473;-73
2021/03/10 04:57:17;;;;;;;2.10;0.90;;;;;;;;;;5032571;28;20418;-72
2021/03/10 04:59:42;;;;;;;0.80;0.60;;;;;;;;;;5044144;28;20540;-73
2021/03/10 05:02:08;;;;;;;2.07;1.00;;;;;;;;;;5041365;28;20416;-72
2021/03/10 05:04:34;;;;;;;3.00;1.03;;;;;;;;;;5045355;28;20412;-72
2021/03/10 05:07:00;;;;;;;0.80;0.70;;;;;;;;;;5044048;28;20755;-73
2021/03/10 05:09:26;;;;;;;3.50;0.90;;;;;;;;;;5043112;28;20468;-72
2021/03/10 05:11:52;;;;;;;1.07;0.67;;;;;;;;;;5060914;22;20645;-69
2021/03/10 05:14:18;;;;;;;0.80;0.73;;;;;;;;;;5059668;28;20398;-70
2021/03/10 05:16:44;;;;;;;0.80;0.57;;;;;;;;;;5061431;28;20389;-69
2021/03/10 05:19:10;;;;;;;0.70;0.60;;;;;;;;;;5041599;28;20400;-70
2021/03/10 05:21:36;;;;;;;0.80;0.60;;;;;;;;;;5059048;28;20411;-70
2021/03/10 05:24:02;;;;;;;5.80;1.37;;;;;;;;;;5060277;28;20487;-68
2021/03/10 05:26:28;;;;;;;0.77;0.60;;;;;;;;;;5060715;28;20456;-71
2021/03/10 05:28:54;;;;;;;1.03;0.93;;;;;;;;;;5064164;28;20489;-70
2021/03/10 05:31:20;;;;;;;0.70;0.60;;;;;;;;;;5058779;28;20460;-64
2021/03/10 05:33:46;;;;;;;0.90;0.80;;;;;;;;;;5060046;28;20415;-63
2021/03/10 05:36:12;;;;;;;1.00;0.60;;;;;;;;;;5059294;28;20414;-64
2021/03/10 05:38:37;;;;;;;1.13;1.03;;;;;;;;;;5061335;28;20404;-63
2021/03/10 05:41:03;;;;;;;0.90;0.60;;;;;;;;;;5061936;28;20447;-62
2021/03/10 05:43:30;;;;;;;1.10;0.80;;;;;;;;;;5054833;28;20416;-65
2021/03/10 05:45:56;;;;;;;1.90;1.80;;;;;;;;;;5052290;28;20888;-59
2021/03/10 05:48:22;;;;;;;1.17;0.77;;;;;;;;;;5059504;28;20407;-71
2021/03/10 05:50:48;;;;;;;1.33;1.17;;;;;;;;;;5058037;28;20436;-70
2021/03/10 05:53:16;;;;;;;1.27;1.17;;;;;;;;;;5058335;28;20433;-68
2021/03/10 05:55:42;;;;;;;0.90;0.60;;;;;;;;;;5056544;28;20444;-71
2021/03/10 05:58:14;;;;;;;1.53;0.90;;;;;;;;;;5049841;28;20423;-70
2021/03/10 06:00:44;;;;;;;2.27;1.27;;;;;;;;;;5052323;28;20449;-70
2021/03/10 06:03:11;;;;;;;3.13;3.03;;;;;;;;;;5061981;28;20414;-71
2021/03/10 06:05:37;;;;;;;0.90;0.70;;;;;;;;;;5056671;28;20657;-70
2021/03/10 06:08:04;;;;;;;1.40;0.80;;;;;;;;;;5059384;28;20965;-70
2021/03/10 06:10:36;;;;;;;0.70;0.60;;;;;;;;;;5050262;28;20443;-71
2021/03/10 06:13:02;;;;;;;1.30;1.20;;;;;;;;;;5047508;28;20768;-70
2021/03/10 06:15:38;;;;;;;2.50;2.40;;;;;;;;;;5049161;28;20422;-69
2021/03/10 06:18:04;;;;;;;1.10;0.80;;;;;;;;;;5050875;28;20408;-69
2021/03/10 06:20:31;;;;;;;0.90;0.80;;;;;;;;;;5058862;28;20454;-70
2021/03/10 06:22:57;;;;;;;1.10;0.90;;;;;;;;;;5054142;28;20912;-70
2021/03/10 06:25:24;;;;;;;1.13;1.00;;;;;;;;;;5057709;28;20549;-69
2021/03/10 06:27:54;;;;;;;10.13;1.10;;;;;;;;;;5057730;28;20453;-70
2021/03/10 06:30:43;;;;;;;0.70;0.60;;;;;;;;;;5052161;28;21071;-69
2021/03/10 06:33:09;;;;;;;0.80;0.73;;;;;;;;;;5051986;28;20815;-68
2021/03/10 06:35:36;;;;;;;1.00;0.90;;;;;;;;;;5050441;28;20408;-70
2021/03/10 06:38:16;;;;;;;0.80;0.70;;;;;;;;;;5047552;28;21111;-70
2021/03/10 06:40:49;;;;;;;0.80;0.67;;;;;;;;;;5048502;28;20970;-70
2021/03/10 06:43:15;;;;;;;0.70;0.50;;;;;;;;;;5045742;28;20425;-70
2021/03/10 06:45:41;;;;;;;1.10;0.70;;;;;;;;;;5047553;28;20835;-71
2021/03/10 06:48:20;;;;;;;1.23;0.80;;;;;;;;;;5045582;28;20416;-71
2021/03/10 06:50:46;;;;;;;1.80;1.30;;;;;;;;;;5047971;28;20481;-69
2021/03/10 06:53:12;;;;;;;0.70;0.50;;;;;;;;;;5034809;28;20456;-69
2021/03/10 06:55:42;;;;;;;1.13;0.93;;;;;;;;;;5058681;28;20426;-70
2021/03/10 06:58:08;;;;;;;1.53;1.43;;;;;;;;;;5059437;28;20475;-69
2021/03/10 07:00:35;;;;;;;0.70;0.50;;;;;;;;;;5055926;28;20484;-70
2021/03/10 07:03:01;;;;;;;1.13;1.03;;;;;;;;;;5059113;28;20429;-70
2021/03/10 07:05:28;;;;;;;0.80;0.63;;;;;;;;;;5060225;28;20452;-70
2021/03/10 07:07:54;;;;;;;0.80;0.60;;;;;;;;;;5041696;28;20443;-70
2021/03/10 07:10:21;;;;;;;1.17;1.00;;;;;;;;;;5050967;28;20748;-69
2021/03/10 07:12:48;;;;;;;2.10;1.57;;;;;;;;;;5051851;28;20941;-70
2021/03/10 07:15:14;;;;;;;0.80;0.73;;;;;;;;;;5052389;28;20432;-69
2021/03/10 07:17:40;;;;;;;0.90;0.80;;;;;;;;;;5052070;28;20425;-69
2021/03/10 07:20:07;;;;;;;1.13;1.00;;;;;;;;;;5052373;28;20546;-70
2021/03/10 07:22:40;;;;;;;4.77;1.47;;;;;;;;;;5051721;28;20468;-68
2021/03/10 07:25:08;;;;;;;0.70;0.50;;;;;;;;;;5055021;28;20405;-68
2021/03/10 07:27:45;;;;;;;1.07;0.80;;;;;;;;;;5049534;28;20413;-71
2021/03/10 07:30:12;;;;;;;0.80;0.80;;;;;;;;;;5054330;28;20426;-71
2021/03/10 07:32:38;;;;;;;0.80;0.70;;;;;;;;;;5060089;28;20473;-70
2021/03/10 07:35:06;;;;;;;0.93;0.83;;;;;;;;;;5034418;28;20908;-71
2021/03/10 07:37:32;;;;;;;1.17;0.87;;;;;;;;;;5049438;28;20495;-69
2021/03/10 07:40:05;;;;;;;1.83;1.70;;;;;;;;;;5055964;28;20496;-70
2021/03/10 07:42:31;;;;;;;0.70;0.50;;;;;;;;;;5057738;28;20407;-70
2021/03/10 07:44:58;;;;;;;0.70;0.60;;;;;;;;;;5062317;28;20417;-69
2021/03/10 07:47:24;;;;;;;0.90;0.80;;;;;;;;;;5058477;28;20877;-71
2021/03/10 07:49:57;;;;;;;1.33;0.93;;;;;;;;;;5061929;28;20466;-70
2021/03/10 07:52:25;;;;;;;0.77;0.70;;;;;;;;;;5058521;28;20411;-70
2021/03/10 07:54:56;;;;;;;4.00;0.70;;;;;;;;;;5063105;28;20416;-70
2021/03/10 07:57:22;;;;;;;6.83;2.40;;;;;;;;;;5058856;28;20400;-68
2021/03/10 07:59:54;;;;;;;5.37;1.50;;;;;;;;;;5062133;28;20954;-70
2021/03/10 08:02:21;;;;;;;2.50;1.63;;;;;;;;;;5070920;28;20428;-70
2021/03/10 08:04:54;;;;;;;0.70;0.50;;;;;;;;;;5055661;28;20438;-70
2021/03/10 08:07:26;;;;;;;0.80;0.70;;;;;;;;;;5052426;28;20503;-70
2021/03/10 08:09:53;;;;;;;0.83;0.83;;;;;;;;;;5049256;28;20467;-70
2021/03/10 08:12:20;;;;;;;2.10;1.57;;;;;;;;;;5040325;28;20429;-70
2021/03/10 08:14:48;;;;;;;1.07;0.67;;;;;;;;;;5042021;28;20431;-71
2021/03/10 08:17:21;;;;;;;0.80;0.60;;;;;;;;;;5042842;28;20408;-69
2021/03/10 08:19:54;;;;;;;0.80;0.70;;;;;;;;;;5062142;28;20538;-71
2021/03/10 08:22:24;;;;;;;1.30;0.80;;;;;;;;;;5052394;28;20408;-70
2021/03/10 08:24:51;;;;;;;1.43;1.33;;;;;;;;;;5066751;28;20446;-71
2021/03/10 08:27:17;;;;;;;3.07;2.83;;;;;;;;;;5054046;28;20403;-70
2021/03/10 08:29:52;;;;;;;1.67;0.80;;;;;;;;;;5051575;28;20445;-70
2021/03/10 08:32:31;;;;;;;1.13;0.70;;;;;;;;;;5032328;28;20419;-69
2021/03/10 08:35:06;;;;;;;2.07;1.30;;;;;;;;;;5032184;28;20428;-69
2021/03/10 08:37:32;;;;;;;1.20;0.93;;;;;;;;;;5031775;28;20727;-67
2021/03/10 08:39:59;;;;;;;5.13;0.90;;;;;;;;;;5032120;28;20459;-68
2021/03/10 08:42:25;;;;;;;0.97;0.70;;;;;;;;;;5032255;28;20421;-71
2021/03/10 08:44:51;;;;;;;1.90;1.10;;;;;;;;;;5050849;28;20404;-71
2021/03/10 08:47:18;;;;;;;3.33;2.00;;;;;;;;;;5046120;28;20941;-72
2021/03/10 08:49:45;;;;;;;1.50;1.40;;;;;;;;;;5049463;28;20442;-69
2021/03/10 08:52:13;;;;;;;1.63;0.70;;;;;;;;;;5051635;28;20912;-70
2021/03/10 08:54:48;;;;;;;2.07;1.00;;;;;;;;;;5051903;28;20405;-69
2021/03/10 08:57:14;;;;;;;0.80;0.57;;;;;;;;;;5050976;28;20463;-68
2021/03/10 08:59:40;;;;;;;0.80;0.60;;;;;;;;;;5052241;28;20464;-69
2021/03/10 09:02:06;;;;;;;0.93;0.60;;;;;;;;;;5051734;28;20413;-70
2021/03/10 09:04:33;;;;;;;0.87;0.77;;;;;;;;;;5050839;28;20428;-69
2021/03/10 09:06:59;;;;;;;4.13;2.07;;;;;;;;;;5051912;28;20409;-69
2021/03/10 09:09:27;;;;;;;1.57;1.43;;;;;;;;;;5051632;28;20437;-70
2021/03/10 09:11:53;;;;;;;1.87;1.77;;;;;;;;;;5052032;28;20461;-69
2021/03/10 09:14:19;;;;;;;0.90;0.80;;;;;;;;;;5048652;28;20913;-70
2021/03/10 09:16:56;;;;;;;7.17;0.87;;;;;;;;;;5037634;28;20417;-70
2021/03/10 09:19:32;;;;;;;1.43;1.23;;;;;;;;;;5060841;28;20967;-69
2021/03/10 09:22:08;;;;;;;1.10;0.70;;;;;;;;;;5058715;28;20409;-69
2021/03/10 09:24:34;;;;;;;0.70;0.60;;;;;;;;;;5054107;28;20505;-71
2021/03/10 09:27:00;;;;;;;1.03;0.87;;;;;;;;;;5055020;28;20420;-70
2021/03/10 09:29:26;;;;;;;1.33;1.07;;;;;;;;;;5049367;28;20423;-70
2021/03/10 09:31:52;;;;;;;0.70;0.50;;;;;;;;;;5040246;28;20419;-70
2021/03/10 09:34:18;;;;;;;0.90;0.70;;;;;;;;;;5020415;28;20523;-69
2021/03/10 09:36:46;;;;;;;2.20;0.90;;;;;;;;;;5039866;28;20863;-69
2021/03/10 09:39:14;;;;;;;0.70;0.60;;;;;;;;;;5031178;28;20414;-68
2021/03/10 09:41:46;;;;;;;1.70;1.57;;;;;;;;;;5031170;28;20893;-69
2021/03/10 09:44:12;;;;;;;1.10;0.90;;;;;;;;;;5030051;28;20464;-70
2021/03/10 09:46:39;;;;;;;1.87;1.30;;;;;;;;;;5030336;28;20817;-69
2021/03/10 09:49:05;;;;;;;0.80;0.70;;;;;;;;;;5029439;28;20456;-69
2021/03/10 09:51:31;;;;;;;2.27;1.33;;;;;;;;;;5034333;28;20463;-70
2021/03/10 09:53:59;;;;;;;1.27;1.00;;;;;;;;;;5069732;28;20410;-68
2021/03/10 09:56:25;;;;;;;3.47;1.63;;;;;;;;;;5070714;28;20408;-70
2021/03/10 09:59:00;;;;;;;1.00;0.90;;;;;;;;;;5070084;28;20406;-69
2021/03/10 10:01:27;;;;;;;2.50;0.90;;;;;;;;;;5057821;28;20801;-69
2021/03/10 10:03:54;;;;;;;0.70;0.60;;;;;;;;;;5061209;28;20431;-69
2021/03/10 10:06:20;;;;;;;2.30;1.93;;;;;;;;;;5053060;28;20494;-70
2021/03/10 10:08:47;;;;;;;1.67;1.23;;;;;;;;;;5064963;28;20406;-70
2021/03/10 10:11:13;;;;;;;1.13;0.70;;;;;;;;;;5070506;28;20809;-67
2021/03/10 10:13:43;;;;;;;1.23;0.80;;;;;;;;;;5069543;28;20398;-70
2021/03/10 10:16:09;;;;;;;1.90;1.47;;;;;;;;;;5069890;28;20410;-70
2021/03/10 10:18:35;;;;;;;0.80;0.70;;;;;;;;;;5070332;28;20866;-68
2021/03/10 10:21:01;;;;;;;6.03;1.27;;;;;;;;;;5067758;28;20454;-70
2021/03/10 10:23:27;;;;;;;7.53;3.60;;;;;;;;;;5059150;28;20425;-69
2021/03/10 10:25:54;;;;;;;1.00;0.70;;;;;;;;;;5058778;28;20801;-69
2021/03/10 10:28:20;;;;;;;4.40;3.27;;;;;;;;;;5061996;28;20844;-69
2021/03/10 10:30:46;;;;;;;1.20;1.10;;;;;;;;;;5054567;28;20455;-70
2021/03/10 10:33:12;;;;;;;2.80;1.87;;;;;;;;;;5057206;28;20395;-69
2021/03/10 10:35:38;;;;;;;1.57;1.47;;;;;;;;;;5055145;28;20840;-70
2021/03/10 10:38:05;;;;;;;1.67;0.97;;;;;;;;;;5059609;28;20443;-68
2021/03/10 10:40:31;;;;;;;4.97;2.23;;;;;;;;;;5038919;28;20454;-69
2021/03/10 10:42:57;;;;;;;1.70;1.50;;;;;;;;;;5064405;28;20452;-70
2021/03/10 10:45:23;;;;;;;0.90;0.73;;;;;;;;;;5043284;28;20385;-70
2021/03/10 10:47:49;;;;;;;2.07;1.33;;;;;;;;;;5062687;28;20434;-70
2021/03/10 10:50:15;;;;;;;1.43;1.33;;;;;;;;;;5064463;28;20512;-69
2021/03/10 10:52:41;;;;;;;2.90;2.50;;;;;;;;;;5062661;28;20469;-69
2021/03/10 10:55:08;;;;;;;1.77;0.90;;;;;;;;;;5062126;28;20413;-70
2021/03/10 10:57:34;;;;;;;4.27;2.60;;;;;;;;;;5064061;28;20405;-70
2021/03/10 11:00:00;;;;;;;6.67;1.63;;;;;;;;;;5061752;28;20957;-70
2021/03/10 11:02:26;;;;;;;1.97;1.67;;;;;;;;;;5054618;28;20739;-69
2021/03/10 11:04:52;;;;;;;4.30;1.70;;;;;;;;;;5062073;28;20406;-70
2021/03/10 11:07:18;;;;;;;0.80;0.70;;;;;;;;;;5059774;28;20392;-68
2021/03/10 11:09:44;;;;;;;4.50;1.33;;;;;;;;;;5063388;28;20393;-69
2021/03/10 11:12:11;;;;;;;2.90;1.23;;;;;;;;;;5055677;28;20424;-71
2021/03/10 11:14:38;;;;;;;1.00;0.90;;;;;;;;;;5046781;28;20429;-72
2021/03/10 11:17:04;;;;;;;0.70;0.50;;;;;;;;;;5049156;28;20507;-68
2021/03/10 11:19:29;;;;;;;5.33;1.53;;;;;;;;;;5056240;28;20919;-70
2021/03/10 11:21:55;;;;;;;3.43;2.30;;;;;;;;;;5048433;28;20406;-69
2021/03/10 11:24:21;;;;;;;17.23;4.10;;;;;;;;;;5087594;22;20864;-71
2021/03/10 11:26:48;;;;;;;2.40;1.07;;;;;;;;;;5080565;28;20415;-70
2021/03/10 11:29:14;;;;;;;4.70;2.73;;;;;;;;;;5079650;28;20401;-70
2021/03/10 11:31:40;;;;;;;3.03;2.03;;;;;;;;;;5059389;28;20407;-71
2021/03/10 11:34:06;;;;;;;1.57;0.93;;;;;;;;;;5053198;28;20433;-71
2021/03/10 11:36:32;;;;;;;1.00;0.90;;;;;;;;;;5066410;28;20398;-69
2021/03/10 11:38:58;;;;;;;3.50;2.37;;;;;;;;;;5063483;28;20473;-71
2021/03/10 11:41:24;;;;;;;0.87;0.87;;;;;;;;;;5059664;28;20941;-71
2021/03/10 11:43:50;;;;;;;1.93;1.73;;;;;;;;;;5059702;28;20430;-71
2021/03/10 11:46:16;;;;;;;1.17;0.77;;;;;;;;;;5057282;28;20436;-71
2021/03/10 11:48:42;;;;;;;2.00;1.20;;;;;;;;;;5057729;28;20404;-70
2021/03/10 11:51:08;;;;;;;2.10;1.00;;;;;;;;;;5052086;28;20663;-70
2021/03/10 11:53:34;;;;;;;1.37;0.87;;;;;;;;;;5048346;28;20484;-71
2021/03/10 11:56:00;;;;;;;4.27;1.17;;;;;;;;;;5050618;28;20575;-70
2021/03/10 11:58:27;;;;;;;3.03;1.80;;;;;;;;;;5051371;28;20546;-71
2021/03/10 12:00:55;;;;;;;2.20;2.00;;;;;;;;;;5050740;28;20501;-70
2021/03/10 12:03:21;;;;;;;1.23;1.13;;;;;;;;;;5049642;28;20417;-70
2021/03/10 12:05:48;;;;;;;1.03;0.73;;;;;;;;;;5051822;28;20418;-70
2021/03/10 12:08:14;;;;;;;5.30;1.13;;;;;;;;;;5051483;28;20426;-71
2021/03/10 12:10:41;;;;;;;1.33;0.60;;;;;;;;;;5051425;28;20441;-70
2021/03/10 12:13:07;;;;;;;1.00;0.90;;;;;;;;;;5049478;28;20430;-70
2021/03/10 12:15:33;;;;;;;1.80;1.03;;;;;;;;;;5050152;28;20433;-71
2021/03/10 12:17:59;;;;;;;3.23;1.00;;;;;;;;;;5050818;28;20425;-70
2021/03/10 12:20:25;;;;;;;1.00;0.63;;;;;;;;;;5051639;28;20463;-71
2021/03/10 12:22:51;;;;;;;1.07;0.93;;;;;;;;;;5052147;28;20438;-71
2021/03/10 12:25:17;;;;;;;0.70;0.50;;;;;;;;;;5051830;28;20889;-70
2021/03/10 12:27:43;;;;;;;0.70;0.50;;;;;;;;;;5051861;28;20789;-71
2021/03/10 12:30:09;;;;;;;2.10;1.00;;;;;;;;;;5051105;28;20488;-71
2021/03/10 12:32:36;;;;;;;2.50;0.83;;;;;;;;;;5051919;28;20527;-71
2021/03/10 12:35:03;;;;;;;3.53;1.20;;;;;;;;;;5050526;28;20445;-71
2021/03/10 12:37:29;;;;;;;1.80;1.23;;;;;;;;;;5052433;28;20410;-72
2021/03/10 12:39:56;;;;;;;1.20;0.93;;;;;;;;;;5051665;28;20454;-70
2021/03/10 12:42:22;;;;;;;1.00;0.90;;;;;;;;;;5052574;28;20581;-70
2021/03/10 12:44:48;;;;;;;2.70;1.40;;;;;;;;;;5052027;28;20614;-71
2021/03/10 12:47:14;;;;;;;2.03;1.27;;;;;;;;;;5053231;28;20474;-71
2021/03/10 12:49:40;;;;;;;2.80;1.40;;;;;;;;;;5056549;28;20415;-71
2021/03/10 12:52:07;;;;;;;2.30;1.00;;;;;;;;;;5058915;28;20430;-71
2021/03/10 12:54:33;;;;;;;2.27;1.63;;;;;;;;;;5062979;28;20780;-70
2021/03/10 12:56:59;;;;;;;1.10;1.00;;;;;;;;;;5058209;28;20443;-70
2021/03/10 12:59:25;;;;;;;1.17;0.80;;;;;;;;;;5065456;28;20402;-71
2021/03/10 13:01:51;;;;;;;2.13;1.20;;;;;;;;;;5067109;28;20407;-71
2021/03/10 13:04:17;;;;;;;0.90;0.87;;;;;;;;;;5065553;28;20433;-70
2021/03/10 13:06:43;;;;;;;1.77;1.67;;;;;;;;;;5065890;28;20499;-71
2021/03/10 13:09:09;;;;;;;3.03;0.83;;;;;;;;;;5049905;28;20457;-71
2021/03/10 13:11:35;;;;;;;1.17;0.70;;;;;;;;;;5050259;28;20600;-70
2021/03/10 13:14:01;;;;;;;2.27;1.93;;;;;;;;;;5048676;28;20809;-71
2021/03/10 13:16:27;;;;;;;4.37;2.37;;;;;;;;;;5049225;28;20401;-71
2021/03/10 13:18:53;;;;;;;3.30;1.20;;;;;;;;;;5049142;28;21046;-70
2021/03/10 13:21:20;;;;;;;4.43;1.37;;;;;;;;;;5049816;28;20953;-70
2021/03/10 13:23:46;;;;;;;3.90;2.20;;;;;;;;;;5048744;28;20438;-71
2021/03/10 13:26:12;;;;;;;1.23;1.13;;;;;;;;;;5048941;28;20426;-70
2021/03/10 13:28:39;;;;;;;1.00;0.87;;;;;;;;;;5049390;28;20776;-70
2021/03/10 13:31:05;;;;;;;3.77;3.57;;;;;;;;;;5047945;28;20449;-70
2021/03/10 13:33:31;;;;;;;1.10;0.60;;;;;;;;;;5048473;28;20433;-69
2021/03/10 13:35:57;;;;;;;6.50;1.17;;;;;;;;;;5048441;28;20403;-70
2021/03/10 13:38:24;;;;;;;0.80;0.80;;;;;;;;;;5049032;28;20414;-70
2021/03/10 13:40:50;;;;;;;2.80;2.60;;;;;;;;;;5049431;28;20429;-70
2021/03/10 13:43:17;;;;;;;1.07;0.93;;;;;;;;;;5046209;28;20959;-70
2021/03/10 13:45:43;;;;;;;1.20;1.10;;;;;;;;;;5049626;28;20410;-69
2021/03/10 13:48:08;;;;;;;1.87;1.50;;;;;;;;;;5048442;28;20585;-70
2021/03/10 13:50:34;;;;;;;0.90;0.67;;;;;;;;;;5048756;28;20466;-71
2021/03/10 13:53:00;;;;;;;1.77;1.40;;;;;;;;;;5047650;28;20404;-70
2021/03/10 13:55:27;;;;;;;1.20;0.97;;;;;;;;;;5048928;28;20435;-70
2021/03/10 13:57:52;;;;;;;3.93;1.53;;;;;;;;;;5048698;28;20403;-69
2021/03/10 14:00:19;;;;;;;2.10;1.40;;;;;;;;;;5048906;28;20917;-69
2021/03/10 14:02:45;;;;;;;2.40;1.23;;;;;;;;;;5049040;28;20414;-70
2021/03/10 14:05:11;;;;;;;2.93;1.73;;;;;;;;;;5047175;28;20423;-69
2021/03/10 14:07:37;;;;;;;0.80;0.60;;;;;;;;;;5048724;28;20878;-70
2021/03/10 14:10:03;;;;;;;3.67;1.87;;;;;;;;;;5048141;28;20426;-69
2021/03/10 14:12:29;;;;;;;2.47;1.60;;;;;;;;;;5048743;28;20430;-70
2021/03/10 14:14:55;;;;;;;0.90;0.70;;;;;;;;;;5046202;28;20438;-69
2021/03/10 14:17:21;;;;;;;2.00;1.43;;;;;;;;;;5048866;28;20421;-70
2021/03/10 14:19:47;;;;;;;6.97;3.00;;;;;;;;;;5048365;28;20473;-69
2021/03/10 14:22:12;;;;;;;1.53;1.43;;;;;;;;;;5047013;28;20426;-70
2021/03/10 14:24:38;;;;;;;1.17;1.07;;;;;;;;;;5047222;28;20950;-70
2021/03/10 14:27:05;;;;;;;4.40;1.87;;;;;;;;;;5051018;28;20975;-70
2021/03/10 14:29:31;;;;;;;2.23;2.13;;;;;;;;;;5055384;28;20454;-70
2021/03/10 14:31:56;;;;;;;1.83;1.17;;;;;;;;;;5051777;28;20979;-70
2021/03/10 14:34:22;;;;;;;1.93;1.77;;;;;;;;;;5057619;28;20432;-70
2021/03/10 14:36:48;;;;;;;1.47;1.37;;;;;;;;;;5058498;28;20425;-70
2021/03/10 14:39:14;;;;;;;1.17;1.07;;;;;;;;;;5054222;28;20407;-69
2021/03/10 14:41:40;;;;;;;1.93;1.33;;;;;;;;;;5053275;28;20433;-69